PWSweather.com
Personal Weather Stations
Station Observations

PoschiavoCH

Lat: 46.31962499999999, Lon: 10.066551000000004

Elevation: 3517

Station Type: WH 1080

http://www.meteoposchiavo.com

High Low Average
Temperature 71.0°F21.7°C 53.0°F11.7°C 60.1°F15.6°C
Dew Point 61.7°F16.5°C 43.0°F6.1°C 52.4°F11.3°C
Winds 3.5 mph 5.6 kmh Calm Calm Calm SCalm S
Wind Gusts 3.5 mph5.6 kmh -- 1.0 mph1.6 kmh
Humidity 98% 51% 77%
Pressure 26.61 in901.1 mb 26.50 in897.4 mb -
Precipitation 0.00 in0.0 mm - -
Hour Temp Dew Point Humidity Winds Wind Gusts Pressure Precip Precip Rate Daily Precip Total
12:00 AM 58.0°F14.4°C 45.5°F7.5°C 63% Calm Calm -- 26.59 in900.4 mb - 0.00 in0.0 mm 0.00 in0.0 mm
12:10 AM 58.0°F14.4°C 45.0°F7.2°C 62% Calm Calm -- 26.59 in900.4 mb - 0.00 in0.0 mm 0.00 in0.0 mm
12:15 AM 57.0°F13.9°C 44.5°F6.9°C 63% Calm Calm -- 26.60 in900.8 mb - 0.00 in0.0 mm 0.00 in0.0 mm
12:20 AM 57.0°F13.9°C 44.9°F7.2°C 64% Calm Calm -- 26.60 in900.8 mb - 0.00 in0.0 mm 0.00 in0.0 mm
12:25 AM 57.0°F13.9°C 44.9°F7.2°C 64% Calm Calm -- 26.60 in900.8 mb - 0.00 in0.0 mm 0.00 in0.0 mm
12:30 AM 57.0°F13.9°C 45.7°F7.6°C 66% Calm Calm -- 26.60 in900.8 mb - 0.00 in0.0 mm 0.00 in0.0 mm
12:35 AM 57.0°F13.9°C 45.3°F7.4°C 65% Calm Calm -- 26.60 in900.8 mb - 0.00 in0.0 mm 0.00 in0.0 mm
12:40 AM 57.0°F13.9°C 44.1°F6.7°C 62% Calm Calm -- 26.60 in900.8 mb - 0.00 in0.0 mm 0.00 in0.0 mm
12:45 AM 56.0°F13.3°C 44.0°F6.7°C 64% Calm Calm -- 26.60 in900.8 mb - 0.00 in0.0 mm 0.00 in0.0 mm
12:50 AM 56.0°F13.3°C 43.6°F6.4°C 63% Calm Calm -- 26.60 in900.8 mb - 0.00 in0.0 mm 0.00 in0.0 mm
12:55 AM 56.0°F13.3°C 43.6°F6.4°C 63% Calm Calm -- 26.60 in900.8 mb - 0.00 in0.0 mm 0.00 in0.0 mm
01:00 AM 56.0°F13.3°C 44.8°F7.1°C 66% Calm Calm -- 26.61 in901.1 mb - 0.00 in0.0 mm 0.00 in0.0 mm
01:10 AM 56.0°F13.3°C 44.0°F6.7°C 64% Calm Calm -- 26.61 in901.1 mb - 0.00 in0.0 mm 0.00 in0.0 mm
01:15 AM 56.0°F13.3°C 44.4°F6.9°C 65% Calm Calm -- 26.61 in901.1 mb - 0.00 in0.0 mm 0.00 in0.0 mm
01:20 AM 56.0°F13.3°C 44.4°F6.9°C 65% Calm Calm -- 26.61 in901.1 mb - 0.00 in0.0 mm 0.00 in0.0 mm
01:25 AM 56.0°F13.3°C 44.0°F6.7°C 64% Calm Calm -- 26.61 in901.1 mb - 0.00 in0.0 mm 0.00 in0.0 mm
01:30 AM 56.0°F13.3°C 44.0°F6.7°C 64% Calm Calm -- 26.61 in901.1 mb - 0.00 in0.0 mm 0.00 in0.0 mm
01:35 AM 56.0°F13.3°C 44.4°F6.9°C 65% Calm Calm -- 26.60 in900.8 mb - 0.00 in0.0 mm 0.00 in0.0 mm
01:40 AM 56.0°F13.3°C 44.0°F6.7°C 64% Calm Calm -- 26.60 in900.8 mb - 0.00 in0.0 mm 0.00 in0.0 mm
01:45 AM 56.0°F13.3°C 44.0°F6.7°C 64% Calm Calm -- 26.60 in900.8 mb - 0.00 in0.0 mm 0.00 in0.0 mm
01:50 AM 56.0°F13.3°C 44.4°F6.9°C 65% Calm Calm -- 26.61 in901.1 mb - 0.00 in0.0 mm 0.00 in0.0 mm
01:55 AM 56.0°F13.3°C 43.6°F6.4°C 63% Calm Calm -- 26.61 in901.1 mb - 0.00 in0.0 mm 0.00 in0.0 mm
02:00 AM 55.0°F12.8°C 43.0°F6.1°C 64% Calm Calm -- 26.60 in900.8 mb - 0.00 in0.0 mm 0.00 in0.0 mm
02:10 AM 55.0°F12.8°C 44.2°F6.8°C 67% Calm Calm -- 26.60 in900.8 mb - 0.00 in0.0 mm 0.00 in0.0 mm
02:15 AM 55.0°F12.8°C 44.2°F6.8°C 67% Calm Calm -- 26.60 in900.8 mb - 0.00 in0.0 mm 0.00 in0.0 mm
02:20 AM 55.0°F12.8°C 43.8°F6.6°C 66% Calm Calm -- 26.61 in901.1 mb - 0.00 in0.0 mm 0.00 in0.0 mm
02:25 AM 55.0°F12.8°C 43.0°F6.1°C 64% Calm Calm -- 26.60 in900.8 mb - 0.00 in0.0 mm 0.00 in0.0 mm
02:30 AM 55.0°F12.8°C 43.8°F6.6°C 66% Calm Calm -- 26.61 in901.1 mb - 0.00 in0.0 mm 0.00 in0.0 mm
02:35 AM 55.0°F12.8°C 44.2°F6.8°C 67% Calm Calm -- 26.60 in900.8 mb - 0.00 in0.0 mm 0.00 in0.0 mm
02:40 AM 55.0°F12.8°C 44.6°F7.0°C 68% Calm Calm -- 26.60 in900.8 mb - 0.00 in0.0 mm 0.00 in0.0 mm
02:45 AM 55.0°F12.8°C 43.8°F6.6°C 66% Calm Calm -- 26.60 in900.8 mb - 0.00 in0.0 mm 0.00 in0.0 mm
02:50 AM 55.0°F12.8°C 43.8°F6.6°C 66% Calm Calm -- 26.60 in900.8 mb - 0.00 in0.0 mm 0.00 in0.0 mm
02:55 AM 55.0°F12.8°C 44.6°F7.0°C 68% Calm Calm -- 26.59 in900.4 mb - 0.00 in0.0 mm 0.00 in0.0 mm
03:00 AM 54.0°F12.2°C 43.7°F6.5°C 68% Calm Calm -- 26.59 in900.4 mb - 0.00 in0.0 mm 0.00 in0.0 mm
03:10 AM 54.0°F12.2°C 44.4°F6.9°C 70% Calm Calm -- 26.60 in900.8 mb - 0.00 in0.0 mm 0.00 in0.0 mm
03:15 AM 54.0°F12.2°C 44.8°F7.1°C 71% Calm Calm -- 26.59 in900.4 mb - 0.00 in0.0 mm 0.00 in0.0 mm
03:20 AM 54.0°F12.2°C 44.8°F7.1°C 71% Calm Calm -- 26.59 in900.4 mb - 0.00 in0.0 mm 0.00 in0.0 mm
03:25 AM 54.0°F12.2°C 44.4°F6.9°C 70% Calm Calm -- 26.60 in900.8 mb - 0.00 in0.0 mm 0.00 in0.0 mm
03:30 AM 54.0°F12.2°C 44.1°F6.7°C 69% Calm Calm -- 26.60 in900.8 mb - 0.00 in0.0 mm 0.00 in0.0 mm
03:35 AM 54.0°F12.2°C 44.4°F6.9°C 70% Calm Calm -- 26.59 in900.4 mb - 0.00 in0.0 mm 0.00 in0.0 mm
03:40 AM 54.0°F12.2°C 44.1°F6.7°C 69% Calm Calm -- 26.59 in900.4 mb - 0.00 in0.0 mm 0.00 in0.0 mm
03:45 AM 54.0°F12.2°C 43.7°F6.5°C 68% Calm Calm -- 26.59 in900.4 mb - 0.00 in0.0 mm 0.00 in0.0 mm
03:50 AM 54.0°F12.2°C 44.1°F6.7°C 69% Calm Calm -- 26.59 in900.4 mb - 0.00 in0.0 mm 0.00 in0.0 mm
03:55 AM 54.0°F12.2°C 44.1°F6.7°C 69% Calm Calm -- 26.59 in900.4 mb - 0.00 in0.0 mm 0.00 in0.0 mm
04:00 AM 54.0°F12.2°C 44.4°F6.9°C 70% Calm Calm -- 26.59 in900.4 mb - 0.00 in0.0 mm 0.00 in0.0 mm
04:10 AM 54.0°F12.2°C 44.4°F6.9°C 70% Calm Calm -- 26.59 in900.4 mb - 0.00 in0.0 mm 0.00 in0.0 mm
04:15 AM 54.0°F12.2°C 44.4°F6.9°C 70% Calm Calm -- 26.60 in900.8 mb - 0.00 in0.0 mm 0.00 in0.0 mm
04:20 AM 54.0°F12.2°C 44.1°F6.7°C 69% Calm Calm -- 26.59 in900.4 mb - 0.00 in0.0 mm 0.00 in0.0 mm
04:25 AM 54.0°F12.2°C 44.4°F6.9°C 70% Calm Calm -- 26.60 in900.8 mb - 0.00 in0.0 mm 0.00 in0.0 mm
04:30 AM 54.0°F12.2°C 44.8°F7.1°C 71% Calm Calm -- 26.60 in900.8 mb - 0.00 in0.0 mm 0.00 in0.0 mm
04:35 AM 54.0°F12.2°C 44.8°F7.1°C 71% Calm Calm -- 26.59 in900.4 mb - 0.00 in0.0 mm 0.00 in0.0 mm
04:40 AM 54.0°F12.2°C 44.8°F7.1°C 71% Calm Calm -- 26.60 in900.8 mb - 0.00 in0.0 mm 0.00 in0.0 mm
04:45 AM 54.0°F12.2°C 44.4°F6.9°C 70% Calm Calm -- 26.59 in900.4 mb - 0.00 in0.0 mm 0.00 in0.0 mm
04:50 AM 54.0°F12.2°C 44.8°F7.1°C 71% Calm Calm -- 26.59 in900.4 mb - 0.00 in0.0 mm 0.00 in0.0 mm
04:55 AM 53.6°F12.0°C 44.4°F6.9°C 71% Calm Calm -- 26.59 in900.4 mb - 0.00 in0.0 mm 0.00 in0.0 mm
05:00 AM 53.0°F11.7°C 44.2°F6.8°C 72% Calm Calm -- 26.60 in900.8 mb - 0.00 in0.0 mm 0.00 in0.0 mm
05:10 AM 54.0°F12.2°C 45.5°F7.5°C 73% Calm Calm -- 26.59 in900.4 mb - 0.00 in0.0 mm 0.00 in0.0 mm
05:15 AM 54.0°F12.2°C 45.5°F7.5°C 73% Calm Calm -- 26.59 in900.4 mb - 0.00 in0.0 mm 0.00 in0.0 mm
05:20 AM 54.0°F12.2°C 45.2°F7.3°C 72% Calm Calm -- 26.60 in900.8 mb - 0.00 in0.0 mm 0.00 in0.0 mm
05:25 AM 54.0°F12.2°C 45.2°F7.3°C 72% Calm Calm -- 26.60 in900.8 mb - 0.00 in0.0 mm 0.00 in0.0 mm
05:30 AM 54.0°F12.2°C 45.5°F7.5°C 73% Calm Calm -- 26.59 in900.4 mb - 0.00 in0.0 mm 0.00 in0.0 mm
05:35 AM 54.0°F12.2°C 44.8°F7.1°C 71% Calm Calm -- 26.60 in900.8 mb - 0.00 in0.0 mm 0.00 in0.0 mm
05:40 AM 53.0°F11.7°C 44.6°F7.0°C 73% Calm Calm -- 26.60 in900.8 mb - 0.00 in0.0 mm 0.00 in0.0 mm
05:45 AM 53.0°F11.7°C 44.9°F7.2°C 74% Calm Calm -- 26.60 in900.8 mb - 0.00 in0.0 mm 0.00 in0.0 mm
05:50 AM 53.0°F11.7°C 45.3°F7.4°C 75% Calm Calm -- 26.59 in900.4 mb - 0.00 in0.0 mm 0.00 in0.0 mm
05:55 AM 54.0°F12.2°C 46.3°F7.9°C 75% Calm Calm -- 26.59 in900.4 mb - 0.00 in0.0 mm 0.00 in0.0 mm
06:00 AM 54.0°F12.2°C 43.7°F6.5°C 68% Calm Calm -- 26.59 in900.4 mb - 0.00 in0.0 mm 0.00 in0.0 mm
06:10 AM 54.0°F12.2°C 46.3°F7.9°C 75% Calm Calm -- 26.60 in900.8 mb - 0.00 in0.0 mm 0.00 in0.0 mm
06:15 AM 54.0°F12.2°C 47.0°F8.3°C 77% Calm Calm -- 26.60 in900.8 mb - 0.00 in0.0 mm 0.00 in0.0 mm
06:20 AM 54.0°F12.2°C 47.3°F8.5°C 78% Calm Calm -- 26.59 in900.4 mb - 0.00 in0.0 mm 0.00 in0.0 mm
06:25 AM 54.0°F12.2°C 47.3°F8.5°C 78% Calm Calm -- 26.59 in900.4 mb - 0.00 in0.0 mm 0.00 in0.0 mm
06:30 AM 54.0°F12.2°C 47.3°F8.5°C 78% Calm Calm -- 26.60 in900.8 mb - 0.00 in0.0 mm 0.00 in0.0 mm
06:35 AM 54.0°F12.2°C 47.3°F8.5°C 78% Calm Calm -- 26.58 in900.1 mb - 0.00 in0.0 mm 0.00 in0.0 mm
06:40 AM 54.0°F12.2°C 46.3°F7.9°C 75% Calm Calm -- 26.59 in900.4 mb - 0.00 in0.0 mm 0.00 in0.0 mm
06:45 AM 54.0°F12.2°C 45.2°F7.3°C 72% Calm Calm -- 26.58 in900.1 mb - 0.00 in0.0 mm 0.00 in0.0 mm
06:50 AM 54.0°F12.2°C 45.9°F7.7°C 74% Calm Calm -- 26.59 in900.4 mb - 0.00 in0.0 mm 0.00 in0.0 mm
06:55 AM 54.0°F12.2°C 46.6°F8.1°C 76% Calm Calm -- 26.59 in900.4 mb - 0.00 in0.0 mm 0.00 in0.0 mm
07:00 AM 54.0°F12.2°C 47.0°F8.3°C 77% Calm Calm -- 26.59 in900.4 mb - 0.00 in0.0 mm 0.00 in0.0 mm
07:10 AM 55.0°F12.8°C 46.1°F7.8°C 72% Calm Calm -- 26.58 in900.1 mb - 0.00 in0.0 mm 0.00 in0.0 mm
07:15 AM 55.0°F12.8°C 45.4°F7.4°C 70% Calm Calm -- 26.59 in900.4 mb - 0.00 in0.0 mm 0.00 in0.0 mm
07:20 AM 55.4°F13.0°C 45.4°F7.4°C 69% Calm Calm -- 26.59 in900.4 mb - 0.00 in0.0 mm 0.00 in0.0 mm
07:25 AM 56.0°F13.3°C 45.2°F7.3°C 67% Calm Calm -- 26.58 in900.1 mb - 0.00 in0.0 mm 0.00 in0.0 mm
07:30 AM 56.0°F13.3°C 46.0°F7.8°C 69% Calm Calm -- 26.58 in900.1 mb - 0.00 in0.0 mm 0.00 in0.0 mm
07:35 AM 56.0°F13.3°C 46.4°F8.0°C 70% Calm Calm -- 26.58 in900.1 mb - 0.00 in0.0 mm 0.00 in0.0 mm
07:40 AM 56.0°F13.3°C 48.2°F9.0°C 75% Calm Calm -- 26.59 in900.4 mb - 0.00 in0.0 mm 0.00 in0.0 mm
07:45 AM 57.0°F13.9°C 49.2°F9.6°C 75% Calm Calm -- 26.59 in900.4 mb - 0.00 in0.0 mm 0.00 in0.0 mm
07:50 AM 57.0°F13.9°C 48.8°F9.3°C 74% Calm Calm -- 26.59 in900.4 mb - 0.00 in0.0 mm 0.00 in0.0 mm
07:55 AM 57.0°F13.9°C 47.7°F8.7°C 71% Calm Calm -- 26.58 in900.1 mb - 0.00 in0.0 mm 0.00 in0.0 mm
08:00 AM 58.0°F14.4°C 47.5°F8.6°C 68% Calm Calm -- 26.58 in900.1 mb - 0.00 in0.0 mm 0.00 in0.0 mm
08:10 AM 59.0°F15.0°C 48.4°F9.1°C 68% Calm Calm -- 26.59 in900.4 mb - 0.00 in0.0 mm 0.00 in0.0 mm
08:15 AM 59.0°F15.0°C 48.1°F8.9°C 67% Calm Calm -- 26.58 in900.1 mb - 0.00 in0.0 mm 0.00 in0.0 mm
08:20 AM 59.0°F15.0°C 48.1°F8.9°C 67% Calm Calm -- 26.58 in900.1 mb - 0.00 in0.0 mm 0.00 in0.0 mm
08:25 AM 60.0°F15.6°C 48.6°F9.2°C 66% Calm Calm -- 26.58 in900.1 mb - 0.00 in0.0 mm 0.00 in0.0 mm
08:30 AM 60.0°F15.6°C 47.8°F8.8°C 64% Calm Calm -- 26.57 in899.8 mb - 0.00 in0.0 mm 0.00 in0.0 mm
08:35 AM 61.0°F16.1°C 49.1°F9.5°C 65% Calm Calm -- 26.58 in900.1 mb - 0.00 in0.0 mm 0.00 in0.0 mm
08:40 AM 61.0°F16.1°C 47.4°F8.6°C 61% Calm Calm -- 26.57 in899.8 mb - 0.00 in0.0 mm 0.00 in0.0 mm
08:45 AM 61.4°F16.3°C 46.5°F8.1°C 58% Calm Calm -- 26.57 in899.8 mb - 0.00 in0.0 mm 0.00 in0.0 mm
08:50 AM 62.0°F16.7°C 45.2°F7.3°C 54% Calm Calm -- 26.57 in899.8 mb - 0.00 in0.0 mm 0.00 in0.0 mm
08:55 AM 63.0°F17.2°C 48.0°F8.9°C 58% Calm Calm -- 26.57 in899.8 mb - 0.00 in0.0 mm 0.00 in0.0 mm
09:00 AM 63.0°F17.2°C 44.6°F7.0°C 51% 2.3 mph S3.7 kmh S 3.5 mph5.6 kmh 26.57 in899.8 mb - 0.00 in0.0 mm 0.00 in0.0 mm
09:10 AM 63.0°F17.2°C 46.1°F7.8°C 54% 1.2 mph S1.9 kmh S 1.2 mph1.9 kmh 26.57 in899.8 mb - 0.00 in0.0 mm 0.00 in0.0 mm
09:15 AM 63.0°F17.2°C 46.1°F7.8°C 54% 1.2 mph S1.9 kmh S 1.2 mph1.9 kmh 26.57 in899.8 mb - 0.00 in0.0 mm 0.00 in0.0 mm
09:20 AM 63.0°F17.2°C 47.5°F8.6°C 57% Calm Calm -- 26.57 in899.8 mb - 0.00 in0.0 mm 0.00 in0.0 mm
09:25 AM 63.0°F17.2°C 47.1°F8.4°C 56% 1.2 mph S1.9 kmh S 1.2 mph1.9 kmh 26.57 in899.8 mb - 0.00 in0.0 mm 0.00 in0.0 mm
09:30 AM 63.0°F17.2°C 47.1°F8.4°C 56% Calm Calm -- 26.57 in899.8 mb - 0.00 in0.0 mm 0.00 in0.0 mm
09:35 AM 63.0°F17.2°C 48.0°F8.9°C 58% 1.2 mph S1.9 kmh S 1.2 mph1.9 kmh 26.57 in899.8 mb - 0.00 in0.0 mm 0.00 in0.0 mm
09:40 AM 63.7°F17.6°C 49.5°F9.7°C 60% Calm Calm 1.2 mph1.9 kmh 26.57 in899.8 mb - 0.00 in0.0 mm 0.00 in0.0 mm
09:45 AM 64.0°F17.8°C 50.3°F10.2°C 61% Calm Calm -- 26.57 in899.8 mb - 0.00 in0.0 mm 0.00 in0.0 mm
09:50 AM 64.0°F17.8°C 50.3°F10.2°C 61% 2.3 mph S3.7 kmh S 2.3 mph3.7 kmh 26.56 in899.4 mb - 0.00 in0.0 mm 0.00 in0.0 mm
09:55 AM 64.0°F17.8°C 50.7°F10.4°C 62% 1.2 mph S1.9 kmh S 2.3 mph3.7 kmh 26.56 in899.4 mb - 0.00 in0.0 mm 0.00 in0.0 mm
10:00 AM 65.0°F18.3°C 51.7°F10.9°C 62% Calm Calm -- 26.57 in899.8 mb - 0.00 in0.0 mm 0.00 in0.0 mm
10:10 AM 65.0°F18.3°C 53.4°F11.9°C 66% 2.3 mph S3.7 kmh S 3.5 mph5.6 kmh 26.57 in899.8 mb - 0.00 in0.0 mm 0.00 in0.0 mm
10:15 AM 65.0°F18.3°C 53.4°F11.9°C 66% 2.3 mph S3.7 kmh S 3.5 mph5.6 kmh 26.56 in899.4 mb - 0.00 in0.0 mm 0.00 in0.0 mm
10:20 AM 65.0°F18.3°C 52.9°F11.6°C 65% 2.3 mph S3.7 kmh S 2.3 mph3.7 kmh 26.57 in899.8 mb - 0.00 in0.0 mm 0.00 in0.0 mm
10:25 AM 65.0°F18.3°C 52.5°F11.4°C 64% Calm Calm 1.2 mph1.9 kmh 26.56 in899.4 mb - 0.00 in0.0 mm 0.00 in0.0 mm
10:30 AM 66.0°F18.9°C 53.9°F12.2°C 65% 1.2 mph S1.9 kmh S 1.2 mph1.9 kmh 26.56 in899.4 mb - 0.00 in0.0 mm 0.00 in0.0 mm
10:35 AM 66.0°F18.9°C 54.7°F12.6°C 67% 1.2 mph S1.9 kmh S 2.3 mph3.7 kmh 26.56 in899.4 mb - 0.00 in0.0 mm 0.00 in0.0 mm
10:40 AM 66.0°F18.9°C 54.7°F12.6°C 67% 1.2 mph S1.9 kmh S 2.3 mph3.7 kmh 26.56 in899.4 mb - 0.00 in0.0 mm 0.00 in0.0 mm
10:45 AM 66.0°F18.9°C 54.7°F12.6°C 67% 2.3 mph S3.7 kmh S 2.3 mph3.7 kmh 26.56 in899.4 mb - 0.00 in0.0 mm 0.00 in0.0 mm
10:50 AM 65.0°F18.3°C 54.2°F12.3°C 68% 1.2 mph S1.9 kmh S 1.2 mph1.9 kmh 26.56 in899.4 mb - 0.00 in0.0 mm 0.00 in0.0 mm
10:55 AM 65.0°F18.3°C 55.4°F13.0°C 71% 2.3 mph S3.7 kmh S 3.5 mph5.6 kmh 26.55 in899.1 mb - 0.00 in0.0 mm 0.00 in0.0 mm
11:00 AM 66.0°F18.9°C 55.1°F12.8°C 68% Calm Calm 1.2 mph1.9 kmh 26.55 in899.1 mb - 0.00 in0.0 mm 0.00 in0.0 mm
11:10 AM 66.0°F18.9°C 55.1°F12.8°C 68% 2.3 mph S3.7 kmh S 2.3 mph3.7 kmh 26.56 in899.4 mb - 0.00 in0.0 mm 0.00 in0.0 mm
11:15 AM 65.0°F18.3°C 54.6°F12.6°C 69% 1.2 mph S1.9 kmh S 2.3 mph3.7 kmh 26.55 in899.1 mb - 0.00 in0.0 mm 0.00 in0.0 mm
11:20 AM 65.0°F18.3°C 54.6°F12.6°C 69% 1.2 mph S1.9 kmh S 2.3 mph3.7 kmh 26.55 in899.1 mb - 0.00 in0.0 mm 0.00 in0.0 mm
11:25 AM 66.0°F18.9°C 54.7°F12.6°C 67% 3.5 mph S5.6 kmh S 3.5 mph5.6 kmh 26.56 in899.4 mb - 0.00 in0.0 mm 0.00 in0.0 mm
11:30 AM 67.0°F19.4°C 55.3°F12.9°C 66% 2.3 mph S3.7 kmh S 2.3 mph3.7 kmh 26.55 in899.1 mb - 0.00 in0.0 mm 0.00 in0.0 mm
11:35 AM 67.0°F19.4°C 55.3°F12.9°C 66% 1.2 mph S1.9 kmh S 2.3 mph3.7 kmh 26.55 in899.1 mb - 0.00 in0.0 mm 0.00 in0.0 mm
11:40 AM 67.0°F19.4°C 55.3°F12.9°C 66% 1.2 mph S1.9 kmh S 2.3 mph3.7 kmh 26.55 in899.1 mb - 0.00 in0.0 mm 0.00 in0.0 mm
11:45 AM 67.0°F19.4°C 55.7°F13.2°C 67% 1.2 mph S1.9 kmh S 1.2 mph1.9 kmh 26.55 in899.1 mb - 0.00 in0.0 mm 0.00 in0.0 mm
11:50 AM 67.0°F19.4°C 55.3°F12.9°C 66% 1.2 mph S1.9 kmh S 2.3 mph3.7 kmh 26.55 in899.1 mb - 0.00 in0.0 mm 0.00 in0.0 mm
11:55 AM 68.0°F20.0°C 55.4°F13.0°C 64% Calm Calm 1.2 mph1.9 kmh 26.55 in899.1 mb - 0.00 in0.0 mm 0.00 in0.0 mm
12:00 PM 68.0°F20.0°C 57.0°F13.9°C 68% 3.5 mph S5.6 kmh S 3.5 mph5.6 kmh 26.54 in898.7 mb - 0.00 in0.0 mm 0.00 in0.0 mm
12:10 PM 68.0°F20.0°C 55.8°F13.2°C 65% 1.2 mph S1.9 kmh S 2.3 mph3.7 kmh 26.54 in898.7 mb - 0.00 in0.0 mm 0.00 in0.0 mm
12:15 PM 69.0°F20.6°C 56.7°F13.7°C 65% 1.2 mph SSW1.9 kmh SSW 2.3 mph3.7 kmh 26.54 in898.7 mb - 0.00 in0.0 mm 0.00 in0.0 mm
12:20 PM 69.0°F20.6°C 57.2°F14.0°C 66% 2.3 mph S3.7 kmh S 3.5 mph5.6 kmh 26.53 in898.4 mb - 0.00 in0.0 mm 0.00 in0.0 mm
12:25 PM 70.0°F21.1°C 58.1°F14.5°C 66% 2.3 mph S3.7 kmh S 3.5 mph5.6 kmh 26.52 in898.1 mb - 0.00 in0.0 mm 0.00 in0.0 mm
12:30 PM 70.0°F21.1°C 57.3°F14.1°C 64% 2.3 mph SSW3.7 kmh SSW 3.5 mph5.6 kmh 26.53 in898.4 mb - 0.00 in0.0 mm 0.00 in0.0 mm
12:35 PM 70.0°F21.1°C 57.3°F14.1°C 64% 3.5 mph SSW5.6 kmh SSW 3.5 mph5.6 kmh 26.53 in898.4 mb - 0.00 in0.0 mm 0.00 in0.0 mm
12:40 PM 71.0°F21.7°C 58.2°F14.6°C 64% Calm Calm 1.2 mph1.9 kmh 26.52 in898.1 mb - 0.00 in0.0 mm 0.00 in0.0 mm
12:45 PM 71.0°F21.7°C 57.8°F14.3°C 63% 2.3 mph S3.7 kmh S 3.5 mph5.6 kmh 26.52 in898.1 mb - 0.00 in0.0 mm 0.00 in0.0 mm
12:50 PM 70.0°F21.1°C 57.7°F14.3°C 65% 2.3 mph SSW3.7 kmh SSW 3.5 mph5.6 kmh 26.53 in898.4 mb - 0.00 in0.0 mm 0.00 in0.0 mm
12:55 PM 69.0°F20.6°C 58.0°F14.4°C 68% 2.3 mph S3.7 kmh S 3.5 mph5.6 kmh 26.53 in898.4 mb - 0.00 in0.0 mm 0.00 in0.0 mm
01:00 PM 69.0°F20.6°C 57.6°F14.2°C 67% 2.3 mph S3.7 kmh S 3.5 mph5.6 kmh 26.53 in898.4 mb - 0.00 in0.0 mm 0.00 in0.0 mm
01:10 PM 68.0°F20.0°C 56.6°F13.7°C 67% 1.2 mph S1.9 kmh S 2.3 mph3.7 kmh 26.52 in898.1 mb - 0.00 in0.0 mm 0.00 in0.0 mm
01:15 PM 68.0°F20.0°C 57.4°F14.1°C 69% 1.2 mph SSE1.9 kmh SSE 1.2 mph1.9 kmh 26.52 in898.1 mb - 0.00 in0.0 mm 0.00 in0.0 mm
01:20 PM 69.0°F20.6°C 58.4°F14.7°C 69% 1.2 mph S1.9 kmh S 1.2 mph1.9 kmh 26.52 in898.1 mb - 0.00 in0.0 mm 0.00 in0.0 mm
01:25 PM 69.0°F20.6°C 59.2°F15.1°C 71% Calm Calm 1.2 mph1.9 kmh 26.51 in897.7 mb - 0.00 in0.0 mm 0.00 in0.0 mm
01:30 PM 69.0°F20.6°C 59.2°F15.1°C 71% Calm Calm 2.3 mph3.7 kmh 26.51 in897.7 mb - 0.00 in0.0 mm 0.00 in0.0 mm
01:35 PM 69.0°F20.6°C 57.6°F14.2°C 67% 1.2 mph S1.9 kmh S 2.3 mph3.7 kmh 26.51 in897.7 mb - 0.00 in0.0 mm 0.00 in0.0 mm
01:40 PM 70.0°F21.1°C 57.7°F14.3°C 65% 2.3 mph S3.7 kmh S 2.3 mph3.7 kmh 26.51 in897.7 mb - 0.00 in0.0 mm 0.00 in0.0 mm
01:45 PM 70.0°F21.1°C 59.0°F15.0°C 68% Calm Calm -- 26.50 in897.4 mb - 0.00 in0.0 mm 0.00 in0.0 mm
01:50 PM 71.0°F21.7°C 59.1°F15.1°C 66% 2.3 mph S3.7 kmh S 2.3 mph3.7 kmh 26.51 in897.7 mb - 0.00 in0.0 mm 0.00 in0.0 mm
01:55 PM 71.0°F21.7°C 59.5°F15.3°C 67% 1.2 mph S1.9 kmh S 2.3 mph3.7 kmh 26.51 in897.7 mb - 0.00 in0.0 mm 0.00 in0.0 mm
02:00 PM 70.0°F21.1°C 58.5°F14.7°C 67% 1.2 mph S1.9 kmh S 1.2 mph1.9 kmh 26.51 in897.7 mb - 0.00 in0.0 mm 0.00 in0.0 mm
02:10 PM 69.0°F20.6°C 57.6°F14.2°C 67% 1.2 mph S1.9 kmh S 1.2 mph1.9 kmh 26.52 in898.1 mb - 0.00 in0.0 mm 0.00 in0.0 mm
02:15 PM 68.0°F20.0°C 57.0°F13.9°C 68% Calm Calm 1.2 mph1.9 kmh 26.50 in897.4 mb - 0.00 in0.0 mm 0.00 in0.0 mm
02:20 PM 68.0°F20.0°C 57.4°F14.1°C 69% Calm Calm 1.2 mph1.9 kmh 26.51 in897.7 mb - 0.00 in0.0 mm 0.00 in0.0 mm
02:25 PM 68.0°F20.0°C 57.4°F14.1°C 69% Calm Calm 1.2 mph1.9 kmh 26.51 in897.7 mb - 0.00 in0.0 mm 0.00 in0.0 mm
02:30 PM 68.0°F20.0°C 57.4°F14.1°C 69% Calm Calm -- 26.50 in897.4 mb - 0.00 in0.0 mm 0.00 in0.0 mm
02:35 PM 68.0°F20.0°C 57.8°F14.3°C 70% Calm Calm -- 26.51 in897.7 mb - 0.00 in0.0 mm 0.00 in0.0 mm
02:40 PM 68.0°F20.0°C 57.0°F13.9°C 68% Calm Calm -- 26.51 in897.7 mb - 0.00 in0.0 mm 0.00 in0.0 mm
02:45 PM 68.0°F20.0°C 57.4°F14.1°C 69% Calm Calm -- 26.50 in897.4 mb - 0.00 in0.0 mm 0.00 in0.0 mm
02:50 PM 68.0°F20.0°C 57.0°F13.9°C 68% 1.2 mph SSE1.9 kmh SSE 2.3 mph3.7 kmh 26.51 in897.7 mb - 0.00 in0.0 mm 0.00 in0.0 mm
02:55 PM 68.0°F20.0°C 57.0°F13.9°C 68% 1.2 mph SSE1.9 kmh SSE 2.3 mph3.7 kmh 26.51 in897.7 mb - 0.00 in0.0 mm 0.00 in0.0 mm
03:00 PM 68.0°F20.0°C 57.4°F14.1°C 69% 1.2 mph S1.9 kmh S 1.2 mph1.9 kmh 26.51 in897.7 mb - 0.00 in0.0 mm 0.00 in0.0 mm
03:10 PM 68.0°F20.0°C 56.6°F13.7°C 67% Calm Calm -- 26.51 in897.7 mb - 0.00 in0.0 mm 0.00 in0.0 mm
03:15 PM 68.0°F20.0°C 56.2°F13.4°C 66% 1.2 mph SSE1.9 kmh SSE 1.2 mph1.9 kmh 26.50 in897.4 mb - 0.00 in0.0 mm 0.00 in0.0 mm
03:20 PM 68.0°F20.0°C 56.6°F13.7°C 67% 1.2 mph S1.9 kmh S 1.2 mph1.9 kmh 26.50 in897.4 mb - 0.00 in0.0 mm 0.00 in0.0 mm
03:25 PM 68.0°F20.0°C 57.0°F13.9°C 68% 1.2 mph S1.9 kmh S 1.2 mph1.9 kmh 26.51 in897.7 mb - 0.00 in0.0 mm 0.00 in0.0 mm
03:30 PM 68.0°F20.0°C 57.4°F14.1°C 69% Calm Calm 1.2 mph1.9 kmh 26.51 in897.7 mb - 0.00 in0.0 mm 0.00 in0.0 mm
03:35 PM 68.0°F20.0°C 57.4°F14.1°C 69% 1.2 mph S1.9 kmh S 1.2 mph1.9 kmh 26.50 in897.4 mb - 0.00 in0.0 mm 0.00 in0.0 mm
03:40 PM 68.0°F20.0°C 57.4°F14.1°C 69% Calm Calm -- 26.50 in897.4 mb - 0.00 in0.0 mm 0.00 in0.0 mm
03:45 PM 68.0°F20.0°C 57.4°F14.1°C 69% Calm Calm -- 26.51 in897.7 mb - 0.00 in0.0 mm 0.00 in0.0 mm
03:50 PM 67.9°F19.9°C 57.8°F14.3°C 70% Calm Calm -- 26.51 in897.7 mb - 0.00 in0.0 mm 0.00 in0.0 mm
03:55 PM 67.0°F19.4°C 59.2°F15.1°C 76% Calm Calm -- 26.50 in897.4 mb - 0.00 in0.0 mm 0.00 in0.0 mm
04:00 PM 66.0°F18.9°C 59.7°F15.4°C 80% Calm Calm -- 26.51 in897.7 mb - 0.00 in0.0 mm 0.00 in0.0 mm
04:10 PM 66.0°F18.9°C 61.7°F16.5°C 86% Calm Calm -- 26.50 in897.4 mb - 0.00 in0.0 mm 0.00 in0.0 mm
04:15 PM 65.3°F18.5°C 60.7°F15.9°C 85% Calm Calm -- 26.51 in897.7 mb - 0.00 in0.0 mm 0.00 in0.0 mm
04:20 PM 65.0°F18.3°C 60.0°F15.6°C 84% Calm Calm -- 26.51 in897.7 mb - 0.00 in0.0 mm 0.00 in0.0 mm
04:25 PM 65.0°F18.3°C 60.7°F15.9°C 86% Calm Calm -- 26.51 in897.7 mb - 0.00 in0.0 mm 0.00 in0.0 mm
04:30 PM 64.0°F17.8°C 59.7°F15.4°C 86% 1.2 mph S1.9 kmh S 1.2 mph1.9 kmh 26.51 in897.7 mb - 0.00 in0.0 mm 0.00 in0.0 mm
04:35 PM 62.0°F16.7°C 58.7°F14.8°C 89% Calm Calm -- 26.51 in897.7 mb - 0.00 in0.0 mm 0.00 in0.0 mm
04:40 PM 62.0°F16.7°C 59.6°F15.3°C 92% Calm Calm -- 26.51 in897.7 mb - 0.00 in0.0 mm 0.00 in0.0 mm
04:45 PM 62.0°F16.7°C 59.3°F15.2°C 91% Calm Calm -- 26.51 in897.7 mb - 0.00 in0.0 mm 0.00 in0.0 mm
04:50 PM 62.0°F16.7°C 59.3°F15.2°C 91% Calm Calm -- 26.51 in897.7 mb - 0.00 in0.0 mm 0.00 in0.0 mm
04:55 PM 62.0°F16.7°C 59.6°F15.3°C 92% Calm Calm -- 26.52 in898.1 mb - 0.00 in0.0 mm 0.00 in0.0 mm
05:00 PM 61.0°F16.1°C 58.7°F14.8°C 92% Calm Calm -- 26.52 in898.1 mb - 0.00 in0.0 mm 0.00 in0.0 mm
05:10 PM 60.0°F15.6°C 58.6°F14.8°C 95% Calm Calm -- 26.53 in898.4 mb - 0.00 in0.0 mm 0.00 in0.0 mm
05:15 PM 60.0°F15.6°C 58.6°F14.8°C 95% Calm Calm -- 26.53 in898.4 mb - 0.00 in0.0 mm 0.00 in0.0 mm
05:20 PM 60.0°F15.6°C 58.6°F14.8°C 95% Calm Calm -- 26.53 in898.4 mb - 0.00 in0.0 mm 0.00 in0.0 mm
05:25 PM 60.0°F15.6°C 58.9°F14.9°C 96% Calm Calm -- 26.52 in898.1 mb - 0.00 in0.0 mm 0.00 in0.0 mm
05:30 PM 60.0°F15.6°C 58.9°F14.9°C 96% Calm Calm -- 26.53 in898.4 mb - 0.00 in0.0 mm 0.00 in0.0 mm
05:35 PM 60.0°F15.6°C 58.9°F14.9°C 96% Calm Calm -- 26.52 in898.1 mb - 0.00 in0.0 mm 0.00 in0.0 mm
05:40 PM 60.0°F15.6°C 59.1°F15.1°C 97% Calm Calm -- 26.52 in898.1 mb - 0.00 in0.0 mm 0.00 in0.0 mm
05:45 PM 60.0°F15.6°C 59.1°F15.1°C 97% Calm Calm -- 26.52 in898.1 mb - 0.00 in0.0 mm 0.00 in0.0 mm
05:50 PM 60.0°F15.6°C 59.1°F15.1°C 97% Calm Calm -- 26.53 in898.4 mb - 0.00 in0.0 mm 0.00 in0.0 mm
05:55 PM 60.0°F15.6°C 59.1°F15.1°C 97% Calm Calm -- 26.52 in898.1 mb - 0.00 in0.0 mm 0.00 in0.0 mm
06:00 PM 60.0°F15.6°C 59.1°F15.1°C 97% Calm Calm -- 26.53 in898.4 mb - 0.00 in0.0 mm 0.00 in0.0 mm
06:10 PM 60.0°F15.6°C 59.1°F15.1°C 97% Calm Calm -- 26.52 in898.1 mb - 0.00 in0.0 mm 0.00 in0.0 mm
06:15 PM 60.0°F15.6°C 59.1°F15.1°C 97% Calm Calm -- 26.52 in898.1 mb - 0.00 in0.0 mm 0.00 in0.0 mm
06:20 PM 60.0°F15.6°C 59.1°F15.1°C 97% Calm Calm -- 26.52 in898.1 mb - 0.00 in0.0 mm 0.00 in0.0 mm
06:25 PM 60.0°F15.6°C 59.1°F15.1°C 97% Calm Calm -- 26.52 in898.1 mb - 0.00 in0.0 mm 0.00 in0.0 mm
06:30 PM 60.0°F15.6°C 59.1°F15.1°C 97% Calm Calm -- 26.53 in898.4 mb - 0.00 in0.0 mm 0.00 in0.0 mm
06:35 PM 60.0°F15.6°C 59.1°F15.1°C 97% Calm Calm -- 26.53 in898.4 mb - 0.00 in0.0 mm 0.00 in0.0 mm
06:40 PM 60.0°F15.6°C 59.1°F15.1°C 97% Calm Calm -- 26.53 in898.4 mb - 0.00 in0.0 mm 0.00 in0.0 mm
06:45 PM 60.0°F15.6°C 59.1°F15.1°C 97% Calm Calm -- 26.53 in898.4 mb - 0.00 in0.0 mm 0.00 in0.0 mm
06:50 PM 60.0°F15.6°C 59.4°F15.2°C 98% Calm Calm -- 26.55 in899.1 mb - 0.00 in0.0 mm 0.00 in0.0 mm
06:55 PM 60.0°F15.6°C 59.4°F15.2°C 98% Calm Calm -- 26.54 in898.7 mb - 0.00 in0.0 mm 0.00 in0.0 mm
07:00 PM 60.0°F15.6°C 59.4°F15.2°C 98% Calm Calm -- 26.55 in899.1 mb - 0.00 in0.0 mm 0.00 in0.0 mm
07:10 PM 60.0°F15.6°C 59.4°F15.2°C 98% Calm Calm 1.2 mph1.9 kmh 26.55 in899.1 mb - 0.00 in0.0 mm 0.00 in0.0 mm
07:15 PM 60.0°F15.6°C 59.4°F15.2°C 98% Calm Calm 1.2 mph1.9 kmh 26.55 in899.1 mb - 0.00 in0.0 mm 0.00 in0.0 mm
07:20 PM 60.0°F15.6°C 59.4°F15.2°C 98% Calm Calm -- 26.55 in899.1 mb - 0.00 in0.0 mm 0.00 in0.0 mm
07:25 PM 60.0°F15.6°C 59.4°F15.2°C 98% Calm Calm -- 26.54 in898.7 mb - 0.00 in0.0 mm 0.00 in0.0 mm
07:30 PM 60.0°F15.6°C 59.4°F15.2°C 98% Calm Calm -- 26.55 in899.1 mb - 0.00 in0.0 mm 0.00 in0.0 mm
07:35 PM 60.0°F15.6°C 59.4°F15.2°C 98% Calm Calm -- 26.54 in898.7 mb - 0.00 in0.0 mm 0.00 in0.0 mm
07:40 PM 60.0°F15.6°C 59.4°F15.2°C 98% Calm Calm -- 26.54 in898.7 mb - 0.00 in0.0 mm 0.00 in0.0 mm
07:45 PM 60.0°F15.6°C 59.4°F15.2°C 98% Calm Calm -- 26.55 in899.1 mb - 0.00 in0.0 mm 0.00 in0.0 mm
07:50 PM 60.0°F15.6°C 59.4°F15.2°C 98% Calm Calm -- 26.54 in898.7 mb - 0.00 in0.0 mm 0.00 in0.0 mm
07:55 PM 59.0°F15.0°C 58.4°F14.7°C 98% Calm Calm -- 26.55 in899.1 mb - 0.00 in0.0 mm 0.00 in0.0 mm
08:00 PM 59.0°F15.0°C 58.4°F14.7°C 98% Calm Calm -- 26.55 in899.1 mb - 0.00 in0.0 mm 0.00 in0.0 mm
08:10 PM 59.0°F15.0°C 58.4°F14.7°C 98% Calm Calm -- 26.54 in898.7 mb - 0.00 in0.0 mm 0.00 in0.0 mm
08:15 PM 59.0°F15.0°C 58.4°F14.7°C 98% Calm Calm -- 26.55 in899.1 mb - 0.00 in0.0 mm 0.00 in0.0 mm
08:20 PM 59.0°F15.0°C 58.4°F14.7°C 98% Calm Calm -- 26.55 in899.1 mb - 0.00 in0.0 mm 0.00 in0.0 mm
08:25 PM 59.0°F15.0°C 58.4°F14.7°C 98% Calm Calm -- 26.55 in899.1 mb - 0.00 in0.0 mm 0.00 in0.0 mm
08:30 PM 59.0°F15.0°C 58.4°F14.7°C 98% 1.2 mph S1.9 kmh S 1.2 mph1.9 kmh 26.56 in899.4 mb - 0.00 in0.0 mm 0.00 in0.0 mm
08:35 PM 59.0°F15.0°C 58.4°F14.7°C 98% Calm Calm 1.2 mph1.9 kmh 26.57 in899.8 mb - 0.00 in0.0 mm 0.00 in0.0 mm
08:40 PM 59.0°F15.0°C 58.4°F14.7°C 98% Calm Calm 1.2 mph1.9 kmh 26.57 in899.8 mb - 0.00 in0.0 mm 0.00 in0.0 mm
08:45 PM 59.0°F15.0°C 58.4°F14.7°C 98% 1.2 mph S1.9 kmh S 1.2 mph1.9 kmh 26.57 in899.8 mb - 0.00 in0.0 mm 0.00 in0.0 mm
08:50 PM 59.0°F15.0°C 58.4°F14.7°C 98% Calm Calm -- 26.57 in899.8 mb - 0.00 in0.0 mm 0.00 in0.0 mm
08:55 PM 59.0°F15.0°C 58.4°F14.7°C 98% Calm Calm -- 26.57 in899.8 mb - 0.00 in0.0 mm 0.00 in0.0 mm
09:00 PM 58.0°F14.4°C 57.2°F14.0°C 97% Calm Calm -- 26.57 in899.8 mb - 0.00 in0.0 mm 0.00 in0.0 mm
09:10 PM 58.0°F14.4°C 56.6°F13.7°C 95% Calm Calm -- 26.58 in900.1 mb - 0.00 in0.0 mm 0.00 in0.0 mm
09:15 PM 58.0°F14.4°C 56.9°F13.8°C 96% Calm Calm -- 26.58 in900.1 mb - 0.00 in0.0 mm 0.00 in0.0 mm
09:20 PM 58.0°F14.4°C 56.9°F13.8°C 96% 1.2 mph S1.9 kmh S 1.2 mph1.9 kmh 26.58 in900.1 mb - 0.00 in0.0 mm 0.00 in0.0 mm
09:25 PM 57.0°F13.9°C 55.6°F13.1°C 95% Calm Calm -- 26.59 in900.4 mb - 0.00 in0.0 mm 0.00 in0.0 mm
09:30 PM 57.0°F13.9°C 55.9°F13.3°C 96% Calm Calm -- 26.57 in899.8 mb - 0.00 in0.0 mm 0.00 in0.0 mm
09:35 PM 58.0°F14.4°C 57.2°F14.0°C 97% Calm Calm -- 26.59 in900.4 mb - 0.00 in0.0 mm 0.00 in0.0 mm
09:40 PM 58.0°F14.4°C 57.2°F14.0°C 97% Calm Calm -- 26.58 in900.1 mb - 0.00 in0.0 mm 0.00 in0.0 mm
09:45 PM 58.0°F14.4°C 57.2°F14.0°C 97% Calm Calm -- 26.57 in899.8 mb - 0.00 in0.0 mm 0.00 in0.0 mm
09:50 PM 58.0°F14.4°C 57.2°F14.0°C 97% Calm Calm -- 26.58 in900.1 mb - 0.00 in0.0 mm 0.00 in0.0 mm
09:55 PM 58.0°F14.4°C 57.2°F14.0°C 97% Calm Calm -- 26.57 in899.8 mb - 0.00 in0.0 mm 0.00 in0.0 mm
10:00 PM 57.0°F13.9°C 56.2°F13.4°C 97% Calm Calm -- 26.57 in899.8 mb - 0.00 in0.0 mm 0.00 in0.0 mm
10:10 PM 57.0°F13.9°C 56.2°F13.4°C 97% Calm Calm -- 26.57 in899.8 mb - 0.00 in0.0 mm 0.00 in0.0 mm
10:15 PM 57.0°F13.9°C 56.2°F13.4°C 97% Calm Calm -- 26.57 in899.8 mb - 0.00 in0.0 mm 0.00 in0.0 mm
10:20 PM 57.0°F13.9°C 56.2°F13.4°C 97% Calm Calm -- 26.57 in899.8 mb - 0.00 in0.0 mm 0.00 in0.0 mm
10:25 PM 56.0°F13.3°C 55.2°F12.9°C 97% Calm Calm -- 26.58 in900.1 mb - 0.00 in0.0 mm 0.00 in0.0 mm
10:30 PM 56.0°F13.3°C 55.2°F12.9°C 97% Calm Calm -- 26.57 in899.8 mb - 0.00 in0.0 mm 0.00 in0.0 mm
10:35 PM 56.0°F13.3°C 54.9°F12.7°C 96% Calm Calm -- 26.59 in900.4 mb - 0.00 in0.0 mm 0.00 in0.0 mm
10:40 PM 56.0°F13.3°C 54.9°F12.7°C 96% Calm Calm -- 26.58 in900.1 mb - 0.00 in0.0 mm 0.00 in0.0 mm
10:45 PM 55.4°F13.0°C 54.5°F12.5°C 97% Calm Calm -- 26.58 in900.1 mb - 0.00 in0.0 mm 0.00 in0.0 mm
10:50 PM 55.0°F12.8°C 54.2°F12.3°C 97% Calm Calm -- 26.58 in900.1 mb - 0.00 in0.0 mm 0.00 in0.0 mm
10:55 PM 55.0°F12.8°C 54.2°F12.3°C 97% Calm Calm -- 26.58 in900.1 mb - 0.00 in0.0 mm 0.00 in0.0 mm
11:00 PM 55.0°F12.8°C 54.2°F12.3°C 97% Calm Calm -- 26.58 in900.1 mb - 0.00 in0.0 mm 0.00 in0.0 mm
11:10 PM 55.0°F12.8°C 54.2°F12.3°C 97% Calm Calm -- 26.58 in900.1 mb - 0.00 in0.0 mm 0.00 in0.0 mm
11:15 PM 55.0°F12.8°C 54.4°F12.4°C 98% Calm Calm -- 26.59 in900.4 mb - 0.00 in0.0 mm 0.00 in0.0 mm
11:20 PM 55.0°F12.8°C 54.4°F12.4°C 98% Calm Calm -- 26.59 in900.4 mb - 0.00 in0.0 mm 0.00 in0.0 mm
11:25 PM 55.0°F12.8°C 54.4°F12.4°C 98% Calm Calm -- 26.59 in900.4 mb - 0.00 in0.0 mm 0.00 in0.0 mm
11:30 PM 55.0°F12.8°C 54.2°F12.3°C 97% Calm Calm -- 26.59 in900.4 mb - 0.00 in0.0 mm 0.00 in0.0 mm
11:35 PM 55.0°F12.8°C 54.2°F12.3°C 97% Calm Calm -- 26.59 in900.4 mb - 0.00 in0.0 mm 0.00 in0.0 mm
11:40 PM 55.0°F12.8°C 54.2°F12.3°C 97% Calm Calm -- 26.59 in900.4 mb - 0.00 in0.0 mm 0.00 in0.0 mm
11:45 PM 55.0°F12.8°C 54.2°F12.3°C 97% Calm Calm -- 26.59 in900.4 mb - 0.00 in0.0 mm 0.00 in0.0 mm
11:50 PM 55.0°F12.8°C 54.2°F12.3°C 97% Calm Calm -- 26.59 in900.4 mb - 0.00 in0.0 mm 0.00 in0.0 mm
11:55 PM 54.0°F12.2°C 53.2°F11.8°C 97% Calm Calm -- 26.59 in900.4 mb - 0.00 in0.0 mm 0.00 in0.0 mm